Time;durP1;ratioP1;P1;durP2;ratioP2;P2;SDS_P1;SDS_P2;PMS_P1;PMS_P2;Temp;Humidity;BMP_temperature;BMP_pressure;BME280_temperature;BME280_humidity;BME280_pressure;Samples;Min_cycle;Max_cycle;Signal;HPM_P1;HPM_P2
2023/02/15 00:01:26;;;;;;;22.20;13.05;;;;;;;0.08;52.68;96725.22;5073260;28;20098;-73
2023/02/15 00:03:52;;;;;;;16.75;10.18;;;;;;;0.05;55.59;96718.38;5075182;28;20096;-73
2023/02/15 00:06:17;;;;;;;16.90;10.27;;;;;;;0.16;54.71;96703.84;5071590;28;20451;-73
2023/02/15 00:08:43;;;;;;;18.40;11.07;;;;;;;0.14;55.55;96708.31;5071106;28;20105;-73
2023/02/15 00:11:13;;;;;;;19.95;12.18;;;;;;;0.11;52.13;96714.59;5068854;28;20074;-73
2023/02/15 00:13:40;;;;;;;17.40;10.95;;;;;;;0.27;52.71;96705.88;5074894;28;20095;-73
2023/02/15 00:16:07;;;;;;;20.67;11.60;;;;;;;0.20;51.01;96705.34;5069594;28;20169;-73
2023/02/15 00:18:32;;;;;;;14.52;8.75;;;;;;;0.19;53.89;96706.28;5074235;28;20073;-73
2023/02/15 00:20:58;;;;;;;19.60;11.88;;;;;;;0.12;52.08;96710.16;5067438;28;20098;-73
2023/02/15 00:23:23;;;;;;;23.70;14.50;;;;;;;-0.26;51.44;96709.59;5068145;28;20369;-73
2023/02/15 00:25:49;;;;;;;27.40;15.10;;;;;;;-0.27;53.04;96713.13;5075002;28;20687;-73
2023/02/15 00:28:15;;;;;;;19.83;12.18;;;;;;;-0.23;52.56;96704.16;5072306;28;20092;-73
2023/02/15 00:30:40;;;;;;;17.45;10.95;;;;;;;-0.08;54.42;96701.66;5074943;28;20082;-73
2023/02/15 00:33:06;;;;;;;23.05;13.65;;;;;;;-0.41;51.60;96700.78;5075350;28;20460;-73
2023/02/15 00:35:31;;;;;;;20.58;12.35;;;;;;;-0.77;52.84;96702.66;5072120;28;20068;-73
2023/02/15 00:37:56;;;;;;;22.25;11.88;;;;;;;-0.65;54.80;96697.72;5071797;28;20138;-73
2023/02/15 00:40:22;;;;;;;23.02;13.85;;;;;;;-0.50;52.99;96694.28;5074154;28;20117;-73
2023/02/15 00:42:47;;;;;;;24.63;14.65;;;;;;;-0.34;51.61;96696.91;5057306;28;20092;-73
2023/02/15 00:45:13;;;;;;;19.67;11.65;;;;;;;-0.19;54.58;96694.38;5076347;28;20143;-74
2023/02/15 00:47:38;;;;;;;15.75;10.15;;;;;;;-0.08;55.04;96696.41;5073328;28;20105;-73
2023/02/15 00:50:05;;;;;;;17.58;10.60;;;;;;;0.05;54.05;96692.19;5065234;28;20431;-73
2023/02/15 00:52:30;;;;;;;15.40;9.60;;;;;;;0.10;54.13;96691.09;5076121;28;20096;-74
2023/02/15 00:54:56;;;;;;;18.70;9.65;;;;;;;0.04;54.32;96689.66;5074069;28;20093;-73
2023/02/15 00:57:21;;;;;;;14.85;8.68;;;;;;;-0.03;55.65;96699.59;5067354;28;20093;-74
2023/02/15 00:59:46;;;;;;;19.10;11.50;;;;;;;0.00;54.39;96694.22;5069516;28;20071;-74
2023/02/15 01:02:12;;;;;;;14.68;9.55;;;;;;;0.10;55.10;96691.09;5067626;28;20254;-74
2023/02/15 01:04:37;;;;;;;16.27;9.18;;;;;;;0.18;53.91;96688.88;5070194;28;20128;-74
2023/02/15 01:07:03;;;;;;;16.08;10.00;;;;;;;0.22;54.06;96693.03;5066544;28;20240;-74
2023/02/15 01:09:29;;;;;;;16.52;10.80;;;;;;;0.16;53.06;96688.13;5068768;28;20098;-73
2023/02/15 01:11:54;;;;;;;22.83;14.38;;;;;;;0.25;51.57;96689.38;5070353;28;20665;-73
2023/02/15 01:14:19;;;;;;;16.27;9.65;;;;;;;0.24;53.99;96685.91;5073338;28;20065;-73
2023/02/15 01:16:45;;;;;;;15.05;9.43;;;;;;;0.26;53.26;96689.28;5071826;28;20143;-73
2023/02/15 01:19:10;;;;;;;20.00;12.32;;;;;;;0.14;50.17;96679.50;5069018;28;20072;-73
2023/02/15 01:21:36;;;;;;;15.57;9.95;;;;;;;0.17;52.66;96687.22;5072909;28;20100;-73
2023/02/15 01:24:01;;;;;;;17.08;9.98;;;;;;;0.19;53.12;96687.94;5076496;28;20299;-73
2023/02/15 01:26:27;;;;;;;17.35;10.27;;;;;;;0.19;53.60;96693.19;5062733;28;20077;-74
2023/02/15 01:28:52;;;;;;;16.10;9.55;;;;;;;0.19;53.18;96688.81;5064843;28;20116;-74
2023/02/15 01:31:19;;;;;;;16.55;8.63;;;;;;;0.15;53.63;96681.19;5073004;28;20124;-73
2023/02/15 01:33:45;;;;;;;21.00;13.02;;;;;;;-0.06;50.98;96678.84;5069504;28;20104;-73
2023/02/15 01:36:10;;;;;;;18.38;11.77;;;;;;;-0.07;52.64;96672.75;5073611;28;20098;-73
2023/02/15 01:38:36;;;;;;;15.40;9.65;;;;;;;-0.08;53.80;96665.84;5075570;28;20083;-73
2023/02/15 01:41:20;;;;;;;23.83;13.93;;;;;;;-0.27;51.54;96671.22;5076053;28;20414;-74
2023/02/15 01:43:48;;;;;;;19.08;11.95;;;;;;;-0.39;52.37;96671.91;5076836;28;20076;-73
2023/02/15 01:46:14;;;;;;;17.35;10.93;;;;;;;-0.43;52.56;96668.63;5073444;28;20158;-74
2023/02/15 01:48:43;;;;;;;13.32;8.15;;;;;;;-0.33;54.28;96661.94;5076420;28;20114;-73
2023/02/15 01:51:09;;;;;;;15.25;9.45;;;;;;;-0.24;54.06;96660.59;5076408;28;20070;-73
2023/02/15 01:53:39;;;;;;;14.70;9.25;;;;;;;-0.12;53.56;96656.47;5057921;28;20633;-74
2023/02/15 01:56:15;;;;;;;15.68;9.65;;;;;;;-0.03;53.55;96660.34;5056241;28;20549;-74
2023/02/15 01:58:40;;;;;;;16.33;10.05;;;;;;;0.06;53.65;96657.22;5073787;28;20146;-73
2023/02/15 02:01:07;;;;;;;16.10;10.27;;;;;;;0.08;52.34;96646.66;5079674;28;20095;-74
2023/02/15 02:04:21;;;;;;;24.88;15.05;;;;;;;-0.14;50.41;96644.41;5061542;28;20138;-73
2023/02/15 02:06:47;;;;;;;21.85;13.48;;;;;;;-0.32;49.67;96652.34;5068756;28;20329;-74
2023/02/15 02:09:12;;;;;;;19.67;12.15;;;;;;;-0.44;51.56;96644.22;5068425;28;20425;-73
2023/02/15 02:11:38;;;;;;;14.82;9.00;;;;;;;-0.34;54.09;96634.09;5070252;28;20071;-73
2023/02/15 02:14:04;;;;;;;16.20;9.98;;;;;;;-0.28;53.55;96629.44;5073387;28;20082;-74
2023/02/15 02:16:44;;;;;;;15.20;9.15;;;;;;;-0.40;51.75;96636.22;5075184;28;20094;-73
2023/02/15 02:19:29;;;;;;;21.70;13.07;;;;;;;-0.76;50.92;96631.13;5068767;28;20653;-73
2023/02/15 02:22:15;;;;;;;14.73;9.20;;;;;;;-0.91;53.38;96634.53;5067545;28;20700;-73
2023/02/15 02:24:58;;;;;;;16.17;9.07;;;;;;;-0.59;53.37;96640.66;5068118;28;20569;-73
2023/02/15 02:27:44;;;;;;;16.30;10.07;;;;;;;-0.36;53.97;96622.88;5073268;28;20075;-74
2023/02/15 02:30:45;;;;;;;19.45;11.85;;;;;;;-0.14;52.25;96626.09;5078221;28;20109;-74
2023/02/15 02:33:33;;;;;;;16.58;10.65;;;;;;;-0.22;51.48;96622.13;5028278;28;20470;-74
2023/02/15 02:36:04;;;;;;;12.90;6.82;;;;;;;-0.21;54.18;96633.41;5075466;28;20462;-73
2023/02/15 02:38:53;;;;;;;16.13;9.65;;;;;;;-0.19;52.95;96624.53;5071904;28;20095;-73
2023/02/15 02:41:57;;;;;;;16.75;10.10;;;;;;;-0.09;52.80;96618.81;5070609;28;20441;-74
2023/02/15 02:44:36;;;;;;;15.95;10.25;;;;;;;-0.08;53.17;96623.09;5058166;28;20097;-74
2023/02/15 02:47:04;;;;;;;;;;;;;;;-0.12;52.45;96611.13;5076777;28;20442;-73
2023/02/15 02:49:35;;;;;;;14.15;8.23;;;;;;;-0.06;53.62;96619.47;5074337;28;20077;-74
2023/02/15 02:52:01;;;;;;;13.85;8.75;;;;;;;-0.03;53.16;96628.91;5056269;28;20096;-73
2023/02/15 02:54:27;;;;;;;18.17;10.90;;;;;;;-0.06;53.14;96627.31;5073283;28;20074;-74
2023/02/15 02:56:52;;;;;;;14.52;8.85;;;;;;;-0.08;54.08;96621.34;5077503;28;20451;-74
2023/02/15 02:59:20;;;;;;;15.15;9.60;;;;;;;-0.10;53.40;96611.88;5055936;28;20099;-74
2023/02/15 03:01:53;;;;;;;16.58;9.43;;;;;;;-0.11;52.16;96608.41;5059519;28;20229;-74
2023/02/15 03:04:21;;;;;;;14.65;8.88;;;;;;;-0.11;53.67;96610.19;5071623;28;20562;-73
2023/02/15 03:07:03;;;;;;;15.15;8.68;;;;;;;-0.17;53.54;96608.75;5059373;28;20519;-73
2023/02/15 03:09:41;;;;;;;20.55;11.93;;;;;;;-0.35;50.21;96601.00;5068746;28;20613;-73
2023/02/15 03:12:34;;;;;;;15.40;9.63;;;;;;;-0.27;52.88;96597.94;5069861;28;20096;-73
2023/02/15 03:15:14;;;;;;;11.10;7.20;;;;;;;-0.29;53.19;96594.59;5053962;28;20115;-73
2023/02/15 03:17:44;;;;;;;12.57;8.05;;;;;;;-0.27;53.47;96589.28;5061422;28;20104;-74
2023/02/15 03:20:20;;;;;;;14.95;9.70;;;;;;;-0.26;52.02;96581.34;5071618;28;20121;-73
2023/02/15 03:22:51;;;;;;;18.10;10.27;;;;;;;-0.27;51.75;96582.25;5054647;28;20078;-73
2023/02/15 03:25:27;;;;;;;15.02;9.52;;;;;;;-0.35;52.86;96576.59;5070773;28;20571;-73
2023/02/15 03:27:55;;;;;;;16.10;9.93;;;;;;;-0.31;52.75;96580.72;5076678;28;20125;-73
2023/02/15 03:30:21;;;;;;;16.95;9.88;;;;;;;-0.35;51.77;96579.22;5089201;28;20152;-73
2023/02/15 03:32:46;;;;;;;20.08;12.00;;;;;;;-0.51;48.66;96580.06;5058247;28;20621;-73
2023/02/15 03:35:11;;;;;;;14.55;8.98;;;;;;;-0.62;53.33;96579.81;5074245;28;20475;-73
2023/02/15 03:37:37;;;;;;;19.20;12.15;;;;;;;-0.95;49.21;96581.53;5071680;28;20116;-73
2023/02/15 03:43:33;;;;;;;14.57;8.88;;;;;;;-1.08;51.71;96581.34;5065276;28;20307;-73
2023/02/15 03:46:13;;;;;;;14.18;9.52;;;;;;;-1.02;51.84;96585.41;5074348;28;20589;-74
2023/02/15 03:48:44;;;;;;;13.07;8.15;;;;;;;-0.95;52.07;96577.16;5059902;28;20100;-73
2023/02/15 03:54:03;;;;;;;13.57;8.68;;;;;;;-0.74;53.66;96565.66;5057913;28;20142;-73
2023/02/15 03:56:28;;;;;;;12.80;8.00;;;;;;;-0.71;54.13;96568.94;5071454;28;20112;-73
2023/02/15 04:02:23;;;;;;;14.18;8.65;;;;;;;-0.77;54.15;96558.81;5070221;28;20104;-73
2023/02/15 04:04:48;;;;;;;13.55;8.30;;;;;;;-0.88;53.36;96564.59;5015300;28;20166;-73
2023/02/15 04:07:14;;;;;;;13.88;8.45;;;;;;;-0.84;53.59;96567.91;5015686;28;20173;-73
2023/02/15 04:12:23;;;;;;;11.70;7.30;;;;;;;-0.83;53.58;96565.22;5070614;28;20569;-73
2023/02/15 04:17:32;;;;;;;16.05;9.43;;;;;;;-0.97;53.38;96570.31;5071924;28;20114;-73
2023/02/15 04:25:25;;;;;;;14.65;9.45;;;;;;;-0.89;52.04;96573.38;5073921;28;20263;-73
2023/02/15 04:27:52;;;;;;;15.48;10.40;;;;;;;-0.93;50.52;96568.41;5069846;28;20593;-73
2023/02/15 04:30:19;;;;;;;18.13;11.23;;;;;;;-0.85;49.49;96571.44;5056183;28;20546;-73
2023/02/15 04:32:44;;;;;;;18.00;11.63;;;;;;;-0.99;47.76;96570.38;5073152;28;20603;-73
2023/02/15 04:35:11;;;;;;;16.40;10.15;;;;;;;-1.05;49.14;96573.31;5073980;28;20078;-73
2023/02/15 04:37:36;;;;;;;17.42;11.18;;;;;;;-1.18;48.91;96567.91;5073001;28;20105;-73
2023/02/15 04:40:03;;;;;;;12.60;7.47;;;;;;;-1.42;51.09;96567.44;5074512;28;20095;-73
2023/02/15 04:42:28;;;;;;;15.82;9.73;;;;;;;-1.41;50.37;96569.97;5072619;28;20074;-73
2023/02/15 04:44:53;;;;;;;11.57;7.55;;;;;;;-1.48;50.83;96574.66;5073737;28;20278;-73
2023/02/15 04:47:19;;;;;;;15.45;9.88;;;;;;;-1.68;48.11;96573.06;5070589;28;20079;-73
2023/02/15 04:49:44;;;;;;;13.77;8.25;;;;;;;-1.65;51.69;96562.47;5071747;28;20193;-73
2023/02/15 04:52:10;;;;;;;11.77;7.40;;;;;;;-1.64;51.92;96568.50;5073763;28;20591;-73
2023/02/15 04:54:35;;;;;;;15.15;9.70;;;;;;;-1.58;50.01;96563.00;5069628;28;20119;-73
2023/02/15 04:57:01;;;;;;;11.80;7.38;;;;;;;-1.65;53.89;96561.59;5072299;28;20219;-73
2023/02/15 04:59:26;;;;;;;10.25;7.32;;;;;;;-1.68;54.25;96562.63;5056977;28;20301;-73
2023/02/15 05:01:51;;;;;;;14.50;8.25;;;;;;;-1.57;52.39;96562.06;5073660;28;20446;-73
2023/02/15 05:04:17;;;;;;;12.00;7.47;;;;;;;-1.61;49.74;96555.31;5069630;28;20095;-73
2023/02/15 05:06:42;;;;;;;12.50;7.95;;;;;;;-1.80;48.65;96552.78;5070895;28;20482;-73
2023/02/15 05:09:08;;;;;;;10.65;6.70;;;;;;;-2.01;50.59;96548.56;5075008;28;20100;-73
2023/02/15 05:11:33;;;;;;;10.52;7.10;;;;;;;-2.19;50.35;96552.94;5077374;28;20136;-73
2023/02/15 05:13:59;;;;;;;11.00;7.20;;;;;;;-2.15;50.01;96553.63;5077243;28;20075;-73
2023/02/15 05:16:25;;;;;;;9.48;5.72;;;;;;;-2.09;52.97;96545.50;5071531;28;20322;-73
2023/02/15 05:18:50;;;;;;;9.43;6.35;;;;;;;-1.96;53.51;96542.28;5070307;28;20101;-73
2023/02/15 05:21:16;;;;;;;10.20;6.75;;;;;;;-2.09;49.08;96542.03;5073209;28;20491;-73
2023/02/15 05:23:42;;;;;;;9.15;6.20;;;;;;;-2.19;50.89;96546.84;5074240;28;20079;-74
2023/02/15 05:28:54;;;;;;;9.70;5.45;;;;;;;-2.14;53.06;96543.09;5066501;28;20185;-73
2023/02/15 05:31:20;;;;;;;7.78;4.78;;;;;;;-2.07;54.59;96538.41;5075744;28;20537;-73
2023/02/15 05:33:45;;;;;;;9.75;6.00;;;;;;;-2.00;54.81;96545.03;5075432;28;20089;-73
2023/02/15 05:36:11;;;;;;;8.50;5.18;;;;;;;-2.00;53.03;96539.81;5075785;28;20581;-73
2023/02/15 05:38:37;;;;;;;8.82;5.68;;;;;;;-2.09;49.02;96539.41;5076185;28;20143;-73
2023/02/15 05:41:06;;;;;;;11.10;7.05;;;;;;;-2.44;47.33;96540.22;5076926;28;20133;-73
2023/02/15 05:43:31;;;;;;;8.73;5.50;;;;;;;-2.46;51.38;96540.31;5077040;28;20075;-73
2023/02/15 05:45:57;;;;;;;9.27;5.55;;;;;;;-2.38;53.80;96542.53;5074773;28;20113;-73
2023/02/15 05:48:23;;;;;;;9.15;5.90;;;;;;;-2.29;53.02;96541.25;5077580;28;20360;-73
2023/02/15 05:51:16;;;;;;;8.50;5.63;;;;;;;-2.26;51.22;96546.31;5073856;28;20094;-73
2023/02/15 05:53:42;;;;;;;8.40;5.30;;;;;;;-2.21;53.39;96546.09;5073732;28;20616;-73
2023/02/15 05:56:11;;;;;;;8.18;4.63;;;;;;;-2.24;53.17;96545.31;5078703;28;20104;-73
2023/02/15 05:58:38;;;;;;;8.73;5.38;;;;;;;-2.34;51.08;96548.47;5075295;28;20088;-73
2023/02/15 06:01:11;;;;;;;7.63;4.53;;;;;;;-2.36;53.73;96548.53;5074570;28;20106;-73
2023/02/15 06:03:36;;;;;;;9.25;6.28;;;;;;;-2.32;50.16;96547.47;5073688;28;20506;-73
2023/02/15 06:06:04;;;;;;;7.40;5.03;;;;;;;-2.29;54.11;96554.28;5070756;28;20105;-72
2023/02/15 06:08:30;;;;;;;9.82;5.95;;;;;;;-2.20;54.54;96550.41;5067695;28;20572;-73
2023/02/15 06:10:55;;;;;;;9.18;4.90;;;;;;;-2.14;54.14;96545.72;5057736;28;20155;-73
2023/02/15 06:13:21;;;;;;;8.73;5.90;;;;;;;-2.17;51.88;96552.84;5075331;28;20169;-73
2023/02/15 06:15:46;;;;;;;9.18;5.60;;;;;;;-2.16;53.11;96551.94;5078073;28;20077;-73
2023/02/15 06:18:11;;;;;;;11.07;7.13;;;;;;;-2.23;49.75;96556.59;5073628;28;20095;-72
2023/02/15 06:20:37;;;;;;;9.85;6.53;;;;;;;-2.37;49.93;96559.88;5073343;28;20097;-73
2023/02/15 06:23:02;;;;;;;9.93;6.55;;;;;;;-2.42;49.44;96560.09;5074892;28;20432;-73
2023/02/15 06:25:28;;;;;;;8.77;6.28;;;;;;;-2.40;53.26;96567.84;5072035;28;20105;-73
2023/02/15 06:27:54;;;;;;;9.52;5.50;;;;;;;-2.08;53.64;96575.88;5071039;28;20094;-73
2023/02/15 06:30:19;;;;;;;9.23;5.65;;;;;;;-2.21;54.78;96569.59;5070110;28;20610;-73
2023/02/15 06:32:45;;;;;;;9.88;6.07;;;;;;;-2.00;52.91;96576.34;5071213;28;20108;-73
2023/02/15 06:35:10;;;;;;;7.53;5.38;;;;;;;-1.90;53.09;96562.84;5073262;28;20092;-72
2023/02/15 06:37:35;;;;;;;8.10;5.43;;;;;;;-1.90;52.39;96565.47;5077737;28;20093;-72
2023/02/15 06:40:01;;;;;;;9.50;6.50;;;;;;;-2.01;49.53;96561.63;5075975;28;20316;-72
2023/02/15 06:42:26;;;;;;;9.85;6.25;;;;;;;-2.10;49.28;96567.31;5077877;28;20075;-72
2023/02/15 06:44:52;;;;;;;8.60;5.65;;;;;;;-2.12;50.56;96564.75;5074824;28;20108;-76
2023/02/15 06:47:17;;;;;;;8.23;4.85;;;;;;;-2.09;52.50;96558.53;5079625;28;20068;-73
2023/02/15 06:49:42;;;;;;;8.18;5.47;;;;;;;-2.02;54.34;96559.06;5072035;28;20104;-73
2023/02/15 06:52:08;;;;;;;10.60;6.68;;;;;;;-2.12;47.46;96561.28;5080514;28;20103;-73
2023/02/15 06:54:33;;;;;;;8.95;5.75;;;;;;;-2.21;51.38;96562.59;5075338;28;20072;-73
2023/02/15 06:56:59;;;;;;;8.40;5.45;;;;;;;-2.37;50.60;96559.88;5071231;28;20551;-73
2023/02/15 06:59:24;;;;;;;8.95;6.07;;;;;;;-2.42;50.99;96564.47;5067821;28;20081;-73
2023/02/15 07:01:49;;;;;;;7.45;4.88;;;;;;;-2.41;51.83;96558.34;5075453;28;20429;-73
2023/02/15 07:04:15;;;;;;;9.27;5.72;;;;;;;-2.30;51.41;96561.28;5076067;28;20372;-73
2023/02/15 07:06:41;;;;;;;7.05;4.35;;;;;;;-2.16;52.74;96560.63;5059534;28;20098;-73
2023/02/15 07:09:06;;;;;;;6.97;4.32;;;;;;;-1.97;53.73;96557.06;5080001;28;20263;-73
2023/02/15 07:14:15;;;;;;;8.43;5.63;;;;;;;-1.70;54.09;96556.59;5069963;28;20070;-73
2023/02/15 07:16:41;;;;;;;10.27;6.03;;;;;;;-1.59;52.48;96563.91;5073091;28;20122;-73
2023/02/15 07:19:07;;;;;;;9.68;6.60;;;;;;;-1.54;49.16;96556.69;5074896;28;20069;-73
2023/02/15 07:21:33;;;;;;;10.57;5.95;;;;;;;-1.43;51.74;96558.72;5073816;28;20096;-73
2023/02/15 07:23:58;;;;;;;8.43;5.50;;;;;;;-1.27;51.41;96563.16;5073022;28;20099;-73
2023/02/15 07:26:24;;;;;;;8.63;5.63;;;;;;;-1.21;51.59;96562.84;5071532;28;20125;-73
2023/02/15 07:28:49;;;;;;;10.10;6.00;;;;;;;-1.13;51.68;96562.44;5072290;28;20169;-73
2023/02/15 07:31:14;;;;;;;9.63;6.57;;;;;;;-1.12;51.28;96564.97;5074386;28;20082;-73
2023/02/15 07:33:40;;;;;;;7.72;5.13;;;;;;;-1.06;52.29;96569.03;5054862;28;20099;-73
2023/02/15 07:36:06;;;;;;;7.55;4.80;;;;;;;-0.96;52.29;96562.41;5072390;28;20542;-73
2023/02/15 07:38:33;;;;;;;7.53;5.00;;;;;;;-0.85;52.92;96568.81;5075035;28;20139;-73
2023/02/15 07:40:59;;;;;;;8.48;5.25;;;;;;;-0.78;51.67;96567.56;5075080;28;20161;-63
2023/02/15 07:43:25;;;;;;;8.05;5.10;;;;;;;-0.74;53.75;96563.03;5073556;28;20067;-66
2023/02/15 07:45:50;;;;;;;8.68;4.97;;;;;;;-0.70;53.67;96562.75;5072395;28;20134;-64
2023/02/15 07:48:16;;;;;;;9.63;6.32;;;;;;;-0.61;51.73;96565.81;5067917;28;20465;-66
2023/02/15 07:50:41;;;;;;;11.00;6.70;;;;;;;-0.40;49.00;96568.16;5075607;28;20131;-64
2023/02/15 07:53:07;;;;;;;10.05;6.45;;;;;;;-0.33;48.46;96566.91;5076750;28;20091;-64
2023/02/15 07:55:32;;;;;;;10.55;6.93;;;;;;;-0.84;48.21;96560.91;5072181;28;20629;-65
2023/02/15 07:57:57;;;;;;;10.75;6.25;;;;;;;-0.59;48.23;96563.94;5075801;28;20086;-65
2023/02/15 08:00:24;;;;;;;9.43;6.38;;;;;;;-0.42;48.26;96563.03;5073861;28;20705;-65
2023/02/15 08:05:38;;;;;;;11.20;7.13;;;;;;;-0.22;48.58;96559.28;5075692;28;20141;-65
2023/02/15 08:08:03;;;;;;;12.30;7.47;;;;;;;-0.24;48.67;96549.84;5072269;28;20108;-64
2023/02/15 08:13:13;;;;;;;10.50;6.75;;;;;;;0.06;46.20;96554.22;5071866;28;20363;-65
2023/02/15 08:15:38;;;;;;;10.10;6.70;;;;;;;-0.02;46.33;96548.59;5073290;28;20323;-64
2023/02/15 08:18:03;;;;;;;13.90;8.73;;;;;;;-0.00;47.93;96541.50;5071446;28;20113;-64
2023/02/15 08:20:29;;;;;;;10.95;6.90;;;;;;;0.40;45.85;96535.69;5072315;28;20584;-65
2023/02/15 08:22:54;;;;;;;12.57;8.13;;;;;;;0.57;45.55;96535.53;5071620;28;20081;-64
2023/02/15 08:25:20;;;;;;;13.80;8.95;;;;;;;0.58;45.40;96534.59;5072141;28;20097;-64
2023/02/15 08:27:45;;;;;;;12.60;6.30;;;;;;;0.93;44.70;96529.91;5070423;28;20105;-65
2023/02/15 08:30:11;;;;;;;11.43;6.93;;;;;;;0.87;44.97;96532.91;5073795;28;20063;-64
2023/02/15 08:32:37;;;;;;;12.45;8.35;;;;;;;1.03;45.17;96528.41;5072495;28;20092;-64
2023/02/15 08:35:02;;;;;;;16.30;10.82;;;;;;;1.11;46.18;96526.16;5071290;28;20516;-64
2023/02/15 08:37:27;;;;;;;10.27;7.22;;;;;;;1.16;45.34;96525.03;5070541;28;20309;-64
2023/02/15 08:39:53;;;;;;;13.35;7.55;;;;;;;1.48;44.16;96524.75;5070012;28;20550;-64
2023/02/15 08:42:20;;;;;;;11.52;6.72;;;;;;;1.75;43.27;96518.69;5076822;28;20078;-64
2023/02/15 08:44:46;;;;;;;11.15;7.03;;;;;;;1.93;42.77;96515.78;5075919;28;20168;-64
2023/02/15 08:47:11;;;;;;;11.65;7.18;;;;;;;1.94;42.97;96510.44;5072996;28;20063;-65
2023/02/15 08:49:37;;;;;;;22.08;14.50;;;;;;;1.75;46.13;96514.28;5075073;28;20079;-65
2023/02/15 08:52:02;;;;;;;17.80;12.02;;;;;;;1.77;46.90;96501.03;5071979;28;20087;-66
2023/02/15 08:54:28;;;;;;;11.48;6.97;;;;;;;2.07;44.68;96507.84;5069829;28;20099;-66
2023/02/15 08:56:53;;;;;;;9.57;6.60;;;;;;;2.29;43.33;96500.28;5069389;28;20081;-64
2023/02/15 08:59:20;;;;;;;9.23;6.72;;;;;;;2.45;43.10;96497.47;5071429;28;20055;-64
2023/02/15 09:01:46;;;;;;;20.10;13.75;;;;;;;2.27;44.65;96501.25;5072794;28;20127;-66
2023/02/15 09:04:12;;;;;;;10.23;7.13;;;;;;;2.59;43.01;96502.59;5071139;28;20102;-66
2023/02/15 09:06:38;;;;;;;10.00;6.60;;;;;;;2.65;42.41;96498.72;5072962;28;20064;-65
2023/02/15 09:09:04;;;;;;;12.75;8.48;;;;;;;2.74;41.82;96502.50;5072813;28;20076;-67
2023/02/15 09:11:32;;;;;;;11.23;7.43;;;;;;;2.74;41.72;96505.13;5074456;28;20583;-66
2023/02/15 09:14:05;;;;;;;13.23;8.90;;;;;;;2.85;42.20;96501.75;5070923;28;20062;-64
2023/02/15 09:16:33;;;;;;;9.48;6.50;;;;;;;2.90;41.96;96497.84;5072221;28;20077;-64
2023/02/15 09:18:58;;;;;;;11.18;8.23;;;;;;;2.90;41.90;96503.09;5071921;28;20094;-64
2023/02/15 09:21:24;;;;;;;11.93;8.23;;;;;;;3.01;41.73;96493.63;5077004;28;20086;-64
2023/02/15 09:23:51;;;;;;;16.10;11.50;;;;;;;2.99;42.20;96493.72;5067973;28;20077;-66
2023/02/15 09:26:18;;;;;;;24.20;16.60;;;;;;;2.98;43.23;96493.84;5072351;28;20067;-64
2023/02/15 09:28:43;;;;;;;11.27;8.20;;;;;;;3.27;42.81;96490.94;5071777;28;20099;-64
2023/02/15 09:31:12;;;;;;;16.35;11.75;;;;;;;3.43;42.87;96488.84;5070259;28;20527;-65
2023/02/15 09:33:38;;;;;;;11.65;8.60;;;;;;;3.27;40.82;96483.03;5071710;28;20108;-64
2023/02/15 09:36:04;;;;;;;10.00;6.97;;;;;;;3.07;41.65;96493.19;5071454;28;20105;-64
2023/02/15 09:38:30;;;;;;;12.23;7.50;;;;;;;1.85;43.54;96496.16;5072444;28;21405;-64
2023/02/15 09:41:27;;;;;;;11.07;8.32;;;;;;;3.19;42.09;96494.09;5075147;28;20149;-64
2023/02/15 09:44:24;;;;;;;16.92;12.40;;;;;;;3.31;42.73;96497.66;5072620;28;20077;-64
2023/02/15 09:47:14;;;;;;;22.95;17.00;;;;;;;3.76;41.54;96493.59;5068017;28;20164;-66
2023/02/15 09:50:26;;;;;;;34.47;23.25;;;;;;;3.61;42.28;96492.94;5066642;28;20070;-73
2023/02/15 09:53:16;;;;;;;11.00;7.38;;;;;;;4.00;40.78;96492.72;5038136;28;20085;-73
2023/02/15 09:55:51;;;;;;;16.48;11.80;;;;;;;4.11;41.71;96495.38;5072126;28;20055;-73
2023/02/15 09:59:02;;;;;;;28.83;20.63;;;;;;;4.11;43.32;96500.66;5070466;28;20424;-73
2023/02/15 10:01:50;;;;;;;11.38;7.63;;;;;;;4.40;40.29;96502.03;5071901;28;20387;-74
2023/02/15 10:04:34;;;;;;;14.10;9.73;;;;;;;4.49;40.74;96498.69;5055736;28;20162;-73
2023/02/15 10:07:12;;;;;;;12.38;8.02;;;;;;;4.68;40.68;96505.19;5072842;28;20043;-69
2023/02/15 10:09:47;;;;;;;10.82;7.38;;;;;;;4.66;39.44;96509.75;5070217;28;20087;-70
2023/02/15 10:12:33;;;;;;;11.75;8.40;;;;;;;4.74;39.99;96498.59;5070290;28;20070;-69
2023/02/15 10:15:20;;;;;;;24.95;16.45;;;;;;;4.79;41.56;96502.56;5068309;28;20055;-69
2023/02/15 10:18:12;;;;;;;34.55;24.48;;;;;;;4.98;40.77;96503.75;5070253;28;20078;-69
2023/02/15 10:20:40;;;;;;;11.45;7.20;;;;;;;5.45;39.07;96503.59;5047219;28;20078;-69
2023/02/15 10:23:43;;;;;;;14.63;10.18;;;;;;;5.36;39.15;96509.63;5074097;28;20093;-68
2023/02/15 10:26:15;;;;;;;11.50;7.78;;;;;;;5.74;38.47;96515.41;5075341;28;20623;-69
2023/02/15 10:28:53;;;;;;;12.10;8.63;;;;;;;5.99;38.59;96505.47;5066970;28;20138;-68
2023/02/15 10:31:24;;;;;;;23.65;17.73;;;;;;;5.85;39.89;96506.63;5074029;28;20095;-69
2023/02/15 10:34:12;;;;;;;10.70;7.53;;;;;;;5.97;37.90;96508.25;5070672;28;20040;-69
2023/02/15 10:37:14;;;;;;;11.65;8.15;;;;;;;5.64;38.85;96514.50;5068342;28;20077;-69
2023/02/15 10:40:02;;;;;;;10.93;7.72;;;;;;;5.27;39.16;96515.66;5072400;28;20475;-68
2023/02/15 10:42:44;;;;;;;11.05;7.35;;;;;;;4.46;41.22;96514.78;5068421;28;20042;-69
2023/02/15 10:45:39;;;;;;;12.30;7.85;;;;;;;5.28;39.56;96507.63;5068271;28;20689;-69
2023/02/15 10:48:30;;;;;;;12.73;9.15;;;;;;;2.05;46.54;96519.41;5069576;28;20067;-68
2023/02/15 10:50:57;;;;;;;12.00;7.95;;;;;;;3.66;43.05;96523.25;5072053;28;20132;-69
2023/02/15 10:53:26;;;;;;;10.82;7.93;;;;;;;3.40;43.51;96520.66;5051792;28;20064;-68
2023/02/15 10:56:16;;;;;;;11.88;8.80;;;;;;;3.46;43.08;96510.66;5072673;28;20445;-68
2023/02/15 10:59:02;;;;;;;21.85;15.32;;;;;;;4.65;41.31;96506.28;5070727;28;20088;-68
2023/02/15 11:01:38;;;;;;;11.13;8.23;;;;;;;3.93;41.27;96509.00;5070185;28;20313;-68
2023/02/15 11:04:22;;;;;;;14.20;9.73;;;;;;;4.58;41.19;96507.69;5062957;28;20074;-69
2023/02/15 11:06:51;;;;;;;12.20;7.97;;;;;;;5.34;39.94;96504.47;5070631;28;20104;-68
2023/02/15 11:09:18;;;;;;;11.35;7.40;;;;;;;5.88;38.99;96495.78;5055538;28;20071;-68
2023/02/15 11:11:45;;;;;;;12.60;8.57;;;;;;;5.83;37.77;96501.47;5050920;28;20078;-69
2023/02/15 11:14:33;;;;;;;10.25;7.82;;;;;;;5.47;39.14;96506.09;5051234;28;20027;-69
2023/02/15 11:17:05;;;;;;;;;;;;;;;5.89;38.41;96494.81;5039010;28;20061;-69
2023/02/15 11:19:35;;;;;;;12.45;8.27;;;;;;;5.93;37.92;96498.03;5068126;28;19923;-69
2023/02/15 11:22:03;;;;;;;9.77;6.97;;;;;;;5.96;38.38;96495.16;5065950;28;20067;-69
2023/02/15 11:24:30;;;;;;;11.07;7.70;;;;;;;6.28;37.10;96488.97;5046003;28;20058;-69
2023/02/15 11:27:24;;;;;;;11.32;7.90;;;;;;;6.19;37.28;96489.75;5069477;28;20526;-69
2023/02/15 11:30:12;;;;;;;13.38;9.32;;;;;;;5.40;38.77;96489.06;5066655;28;20165;-69
2023/02/15 11:32:38;;;;;;;;;;;;;;;6.35;36.63;96484.84;5067957;28;20478;-69
2023/02/15 11:35:10;;;;;;;11.95;7.82;;;;;;;6.36;36.58;96483.88;5068385;28;19912;-69
2023/02/15 11:37:40;;;;;;;12.73;8.02;;;;;;;7.08;35.47;96485.78;5073043;28;20047;-69
2023/02/15 11:40:18;;;;;;;11.65;7.65;;;;;;;7.43;35.18;96473.03;5055438;28;20075;-69
2023/02/15 11:42:43;;;;;;;46.45;32.47;;;;;;;7.53;36.63;96470.38;5054441;28;20091;-69
2023/02/15 11:45:28;;;;;;;21.95;15.60;;;;;;;8.18;35.03;96471.66;5071540;28;20086;-69
2023/02/15 11:47:54;;;;;;;47.97;35.65;;;;;;;8.35;35.91;96463.94;5058979;28;20059;-69
2023/02/15 11:50:22;;;;;;;37.75;28.45;;;;;;;8.54;36.37;96463.09;5072140;28;20094;-72
2023/02/15 11:52:52;;;;;;;41.20;30.35;;;;;;;9.01;34.77;96461.41;5066629;28;20047;-72
2023/02/15 11:55:22;;;;;;;42.03;30.95;;;;;;;9.37;34.30;96452.66;5068445;28;20038;-74
2023/02/15 11:58:00;;;;;;;35.78;27.23;;;;;;;9.94;33.87;96444.41;5059830;28;20070;-71
2023/02/15 12:00:35;;;;;;;39.95;30.65;;;;;;;9.93;31.90;96439.22;5067230;28;20119;-69
2023/02/15 12:03:01;;;;;;;40.10;31.23;;;;;;;10.17;33.11;96440.44;5068721;28;20028;-70
2023/02/15 12:05:26;;;;;;;10.65;7.55;;;;;;;10.71;30.61;96437.59;5071475;28;20596;-72
2023/02/15 12:07:57;;;;;;;38.90;28.85;;;;;;;10.62;32.36;96433.25;5072444;28;20074;-72
2023/02/15 12:10:25;;;;;;;17.05;12.32;;;;;;;11.08;31.62;96438.25;5053530;28;20032;-72
2023/02/15 12:13:11;;;;;;;58.20;44.42;;;;;;;11.11;30.74;96443.31;5068826;28;20067;-73
2023/02/15 12:15:37;;;;;;;13.88;9.98;;;;;;;11.73;29.38;96435.13;5052131;28;20029;-72